createdAt,value
2018-08-17T00:02:00.524Z,21.70
2018-08-17T00:04:28.644Z,21.60
2018-08-17T00:06:56.764Z,21.80
2018-08-17T00:09:24.896Z,22.10
2018-08-17T00:11:53.608Z,22.10
2018-08-17T00:14:21.761Z,24.70
2018-08-17T00:16:49.885Z,23.70
2018-08-17T00:19:18.006Z,23.30
2018-08-17T00:21:46.836Z,23.50
2018-08-17T00:24:14.976Z,23.50
2018-08-17T00:26:43.093Z,23.90
2018-08-17T00:29:12.069Z,23.90
2018-08-17T00:31:40.192Z,22.20
2018-08-17T00:34:08.339Z,23.70
2018-08-17T00:36:36.465Z,23.70
2018-08-17T00:39:06.683Z,23.50
2018-08-17T00:41:34.808Z,23.70
2018-08-17T00:44:02.958Z,23.50
2018-08-17T00:46:31.856Z,21.50
2018-08-17T00:48:59.985Z,21.30
2018-08-17T00:51:28.104Z,20.80
2018-08-17T00:53:56.233Z,20.50
2018-08-17T00:56:24.357Z,19.90
2018-08-17T00:58:52.490Z,20.80
2018-08-17T01:01:20.626Z,21.10
2018-08-17T01:03:49.593Z,20.90
2018-08-17T01:06:17.747Z,22.20
2018-08-17T01:08:45.887Z,23.10
2018-08-17T01:11:14.034Z,23.60
2018-08-17T01:13:42.175Z,25.90
2018-08-17T01:16:10.314Z,25.40
2018-08-17T01:18:38.452Z,25.80
2018-08-17T01:21:07.288Z,25.00
2018-08-17T01:23:35.502Z,24.70
2018-08-17T01:26:03.632Z,23.20
2018-08-17T01:28:31.773Z,21.40
2018-08-17T01:30:59.901Z,22.40
2018-08-17T01:33:28.042Z,22.70
2018-08-17T01:35:56.190Z,23.10
2018-08-17T01:38:25.114Z,25.30
2018-08-17T01:40:53.273Z,25.40
2018-08-17T01:43:21.398Z,25.60
2018-08-17T01:45:49.529Z,24.40
2018-08-17T01:48:17.702Z,24.30
2018-08-17T01:50:45.832Z,23.30
2018-08-17T01:53:13.978Z,23.60
2018-08-17T01:55:42.594Z,23.00
2018-08-17T01:58:10.975Z,22.10
2018-08-17T02:00:39.134Z,22.10
2018-08-17T02:03:07.568Z,21.90
2018-08-17T02:05:35.739Z,20.70
2018-08-17T02:08:03.885Z,21.40
2018-08-17T02:10:32.041Z,21.40
2018-08-17T02:13:00.181Z,21.80
2018-08-17T02:15:28.327Z,22.80
2018-08-17T02:17:56.456Z,21.80
2018-08-17T02:20:24.597Z,20.90
2018-08-17T02:22:52.743Z,21.00
2018-08-17T02:25:20.881Z,20.90
2018-08-17T02:27:49.614Z,22.50
2018-08-17T02:30:17.802Z,21.80
2018-08-17T02:32:45.945Z,20.80
2018-08-17T02:35:14.103Z,18.80
2018-08-17T02:37:42.238Z,19.50
2018-08-17T02:40:10.402Z,17.60
2018-08-17T02:42:38.749Z,18.10
2018-08-17T02:45:07.171Z,16.80
2018-08-17T02:47:35.373Z,18.80
2018-08-17T02:50:03.830Z,18.60
2018-08-17T02:52:31.995Z,17.70
2018-08-17T02:55:00.131Z,17.70
2018-08-17T02:57:28.279Z,16.90
2018-08-17T02:59:56.514Z,17.40
2018-08-17T03:02:25.370Z,18.30
2018-08-17T03:04:53.534Z,19.40
2018-08-17T03:07:21.683Z,19.30
2018-08-17T03:09:49.814Z,19.90
2018-08-17T03:12:17.954Z,19.30
2018-08-17T03:14:46.110Z,21.80
2018-08-17T03:17:14.268Z,21.80
2018-08-17T03:19:43.057Z,23.20
2018-08-17T03:22:11.357Z,23.50
2018-08-17T03:24:39.504Z,23.60
2018-08-17T03:27:07.638Z,24.50
2018-08-17T03:29:35.797Z,25.50
2018-08-17T03:32:03.934Z,25.30
2018-08-17T03:34:32.135Z,25.30
2018-08-17T03:37:00.297Z,26.10
2018-08-17T03:39:28.470Z,26.70
2018-08-17T03:41:56.678Z,30.90
2018-08-17T03:44:25.565Z,39.90
2018-08-17T03:46:53.714Z,50.50
2018-08-17T03:49:21.854Z,53.50
2018-08-17T03:51:50.043Z,51.10
2018-08-17T03:54:18.165Z,51.10
2018-08-17T03:56:46.329Z,51.80
2018-08-17T03:59:14.459Z,57.50
2018-08-17T04:01:43.288Z,50.80
2018-08-17T04:04:11.462Z,47.50
2018-08-17T04:06:39.614Z,47.50
2018-08-17T04:09:08.926Z,51.80
2018-08-17T04:11:37.093Z,56.30
2018-08-17T04:14:05.262Z,56.10
2018-08-17T04:16:33.423Z,53.90
2018-08-17T04:19:02.303Z,56.70
2018-08-17T04:21:31.112Z,56.80
2018-08-17T04:23:59.355Z,55.50
2018-08-17T04:26:27.410Z,56.10
2018-08-17T04:28:55.540Z,56.50
2018-08-17T04:31:23.695Z,69.50
2018-08-17T04:33:51.824Z,69.90
2018-08-17T04:36:20.731Z,71.70
2018-08-17T04:38:49.567Z,69.80
2018-08-17T04:41:17.743Z,65.50
2018-08-17T04:43:45.912Z,65.60
2018-08-17T04:46:14.058Z,67.20
2018-08-17T04:48:42.182Z,67.30
2018-08-17T04:51:10.342Z,67.10
2018-08-17T04:53:38.750Z,67.70
2018-08-17T04:56:07.218Z,67.10
2018-08-17T04:58:35.402Z,66.20
2018-08-17T05:01:03.559Z,66.50
2018-08-17T05:03:31.815Z,67.30
2018-08-17T05:05:59.862Z,63.80
2018-08-17T05:08:28.014Z,60.60
2018-08-17T05:10:56.162Z,53.20
2018-08-17T05:13:24.916Z,50.40
2018-08-17T05:15:53.087Z,46.30
2018-08-17T05:18:21.225Z,40.20
2018-08-17T05:20:49.373Z,30.00
2018-08-17T05:23:17.535Z,22.00
2018-08-17T05:25:45.662Z,19.30
2018-08-17T05:28:13.879Z,15.30
2018-08-17T05:30:42.740Z,11.60
2018-08-17T05:33:10.864Z,9.00
2018-08-17T05:35:39.108Z,7.80
2018-08-17T05:38:07.254Z,8.50
2018-08-17T05:40:35.450Z,7.60
2018-08-17T05:43:03.620Z,9.20
2018-08-17T05:45:32.394Z,9.20
2018-08-17T05:48:00.674Z,9.00
2018-08-17T05:50:32.349Z,8.90
2018-08-17T05:53:00.763Z,9.00
2018-08-17T05:55:28.985Z,9.00
2018-08-17T05:57:57.157Z,6.40
2018-08-17T06:00:25.652Z,5.20
2018-08-17T06:02:54.387Z,6.00
2018-08-17T06:05:22.655Z,5.60
2018-08-17T06:07:50.834Z,4.20
2018-08-17T06:10:18.971Z,3.30
2018-08-17T06:12:47.114Z,2.20
2018-08-17T06:15:15.254Z,2.70
2018-08-17T06:17:43.394Z,3.20
2018-08-17T06:20:11.940Z,2.70
2018-08-17T06:22:40.073Z,1.30
2018-08-17T06:25:10.621Z,2.10
2018-08-17T06:27:39.261Z,1.40
2018-08-17T06:30:10.489Z,1.00
2018-08-17T06:32:38.714Z,1.00
2018-08-17T06:35:08.279Z,1.00
2018-08-17T06:37:37.194Z,1.00
2018-08-17T06:40:05.475Z,1.00
2018-08-17T06:42:33.738Z,1.00
2018-08-17T06:45:02.209Z,1.00
2018-08-17T06:47:30.814Z,1.00
2018-08-17T06:49:58.947Z,1.00
2018-08-17T06:52:27.081Z,1.00
2018-08-17T06:54:56.005Z,1.00
2018-08-17T06:57:24.289Z,1.00
2018-08-17T06:59:52.426Z,1.00
2018-08-17T07:02:20.594Z,1.00
2018-08-17T07:04:48.746Z,1.00
2018-08-17T07:07:16.878Z,1.00
2018-08-17T07:09:45.022Z,1.00
2018-08-17T07:12:13.493Z,1.00
2018-08-17T07:14:41.644Z,1.00
2018-08-17T07:17:09.800Z,1.00
2018-08-17T07:19:38.283Z,1.00
2018-08-17T07:22:06.463Z,1.00
2018-08-17T07:24:34.633Z,1.00
2018-08-17T07:27:02.805Z,1.00
2018-08-17T07:29:30.942Z,1.00
2018-08-17T07:31:59.172Z,1.00
2018-08-17T07:34:27.536Z,1.00
2018-08-17T07:36:55.693Z,1.00
2018-08-17T07:39:23.876Z,1.00
2018-08-17T07:41:52.022Z,1.00
2018-08-17T07:44:20.157Z,1.00
2018-08-17T07:46:48.350Z,1.00
2018-08-17T07:49:16.506Z,1.00
2018-08-17T07:51:44.658Z,1.00
2018-08-17T07:54:12.971Z,1.00
2018-08-17T07:56:41.091Z,1.00
2018-08-17T07:59:09.339Z,1.00
2018-08-17T08:01:38.145Z,1.00
2018-08-17T08:04:06.334Z,1.00
2018-08-17T08:06:34.488Z,1.00
2018-08-17T08:09:03.073Z,1.00
2018-08-17T08:11:31.210Z,1.00
2018-08-17T08:13:59.413Z,1.00
2018-08-17T08:16:27.551Z,1.00
2018-08-17T08:18:55.715Z,1.00
2018-08-17T08:21:23.829Z,1.00
2018-08-17T08:23:51.974Z,1.00
2018-08-17T08:26:20.642Z,1.00
2018-08-17T08:28:48.801Z,1.00
2018-08-17T08:31:16.942Z,1.00
2018-08-17T08:33:45.090Z,1.00
2018-08-17T08:36:13.274Z,1.00
2018-08-17T08:38:41.418Z,1.00
2018-08-17T08:41:09.545Z,1.00
2018-08-17T08:43:38.139Z,1.00
2018-08-17T08:46:06.309Z,1.00
2018-08-17T08:48:34.431Z,1.00
2018-08-17T08:51:02.612Z,1.00
2018-08-17T08:53:30.746Z,1.00
2018-08-17T08:55:58.920Z,1.00
2018-08-17T08:58:27.015Z,1.00
2018-08-17T09:00:55.835Z,1.00
2018-08-17T09:03:24.033Z,1.00
2018-08-17T09:05:52.156Z,1.00
2018-08-17T09:08:20.429Z,1.00
2018-08-17T09:10:48.486Z,1.00
2018-08-17T09:13:16.627Z,1.00
2018-08-17T09:15:45.481Z,1.00
2018-08-17T09:18:13.609Z,1.00
2018-08-17T09:20:41.755Z,1.00
2018-08-17T09:23:09.882Z,1.00
2018-08-17T09:25:38.029Z,1.00
2018-08-17T09:28:06.194Z,1.00
2018-08-17T09:30:34.358Z,1.00
2018-08-17T09:33:02.638Z,1.00
2018-08-17T09:35:30.842Z,1.00
2018-08-17T09:37:58.974Z,1.00
2018-08-17T09:40:27.117Z,1.00
2018-08-17T09:42:55.242Z,1.00
2018-08-17T09:45:23.637Z,1.00
2018-08-17T09:47:51.765Z,1.00
2018-08-17T09:50:19.910Z,1.00
2018-08-17T09:52:48.059Z,1.00
2018-08-17T09:55:16.202Z,1.00
2018-08-17T09:57:44.466Z,1.00
2018-08-17T10:00:12.501Z,1.00
2018-08-17T10:02:45.954Z,1.00
2018-08-17T10:05:19.603Z,1.00
2018-08-17T10:07:53.069Z,1.00
2018-08-17T10:10:22.790Z,1.00
2018-08-17T10:12:51.670Z,1.00
2018-08-17T10:15:19.868Z,1.00
2018-08-17T10:17:48.157Z,1.00
2018-08-17T10:20:18.753Z,1.00
2018-08-17T10:22:47.028Z,1.00
2018-08-17T10:25:16.336Z,1.00
2018-08-17T10:27:45.700Z,1.00
2018-08-17T10:30:13.967Z,1.00
2018-08-17T10:32:47.629Z,1.00
2018-08-17T10:35:21.373Z,1.00
2018-08-17T10:37:49.504Z,1.00
2018-08-17T10:40:17.638Z,1.00
2018-08-17T10:42:45.819Z,1.00
2018-08-17T10:45:13.993Z,1.00
2018-08-17T10:47:42.120Z,1.00
2018-08-17T10:50:15.805Z,1.00
2018-08-17T10:52:43.933Z,1.00
2018-08-17T10:55:12.549Z,1.00
2018-08-17T10:57:40.683Z,1.00
2018-08-17T11:00:12.543Z,1.00
2018-08-17T11:02:41.270Z,1.00
2018-08-17T11:05:09.408Z,1.00
2018-08-17T11:07:38.548Z,1.00
2018-08-17T11:10:08.675Z,1.00
2018-08-17T11:12:37.214Z,1.00
2018-08-17T11:15:05.755Z,1.00
2018-08-17T11:17:33.906Z,1.00
2018-08-17T11:20:02.038Z,1.00
2018-08-17T11:22:30.182Z,1.00
2018-08-17T11:24:58.783Z,1.00
2018-08-17T11:27:26.919Z,1.00
2018-08-17T11:29:55.054Z,1.00
2018-08-17T11:32:23.270Z,1.00
2018-08-17T11:34:53.674Z,1.00
2018-08-17T11:37:22.272Z,1.00
2018-08-17T11:39:55.869Z,1.00
2018-08-17T11:42:24.359Z,1.00
2018-08-17T11:44:52.494Z,1.00
2018-08-17T11:47:20.778Z,1.00
2018-08-17T11:49:48.917Z,1.00
2018-08-17T11:52:17.195Z,1.00
2018-08-17T11:54:45.402Z,1.00
2018-08-17T11:57:13.550Z,1.00
2018-08-17T11:59:49.858Z,1.00
2018-08-17T12:02:18.402Z,1.00
2018-08-17T12:04:47.119Z,1.00
2018-08-17T12:07:15.298Z,1.00
2018-08-17T12:09:49.290Z,1.00
2018-08-17T12:12:17.424Z,1.00
2018-08-17T12:14:46.677Z,1.00
2018-08-17T12:17:15.161Z,1.00
2018-08-17T12:19:43.300Z,1.00
2018-08-17T12:22:11.438Z,1.00
2018-08-17T12:24:39.643Z,1.00
2018-08-17T12:27:07.714Z,1.00
2018-08-17T12:29:35.909Z,1.00
2018-08-17T12:32:04.068Z,1.00
2018-08-17T12:34:32.181Z,1.00
2018-08-17T12:37:00.314Z,1.00
2018-08-17T12:39:28.450Z,1.00
2018-08-17T12:41:56.579Z,1.00
2018-08-17T12:44:24.700Z,1.00
2018-08-17T12:46:52.845Z,1.00
2018-08-17T12:49:20.971Z,1.00
2018-08-17T12:51:49.107Z,1.00
2018-08-17T12:54:22.710Z,1.00
2018-08-17T12:56:51.642Z,1.00
2018-08-17T12:59:19.814Z,1.00
2018-08-17T13:01:47.956Z,1.00
2018-08-17T13:04:16.262Z,1.00
2018-08-17T13:06:44.413Z,1.00
2018-08-17T13:09:12.641Z,1.00
2018-08-17T13:11:47.710Z,1.00
2018-08-17T13:14:15.930Z,1.00
2018-08-17T13:16:44.450Z,1.00
2018-08-17T13:19:12.590Z,1.00
2018-08-17T13:21:40.817Z,1.00
2018-08-17T13:24:08.965Z,1.00
2018-08-17T13:26:37.109Z,1.00
2018-08-17T13:29:05.249Z,1.00
2018-08-17T13:31:33.370Z,1.00
2018-08-17T13:34:01.494Z,1.00
2018-08-17T13:36:29.820Z,1.00
2018-08-17T13:38:57.942Z,1.00
2018-08-17T13:41:26.066Z,1.00
2018-08-17T13:43:54.237Z,1.00
2018-08-17T13:46:22.369Z,1.00
2018-08-17T13:48:50.769Z,1.00
2018-08-17T13:51:18.980Z,1.00
2018-08-17T13:53:47.110Z,1.00
2018-08-17T13:56:15.233Z,1.00
2018-08-17T13:58:43.377Z,1.00
2018-08-17T14:01:11.758Z,1.00
2018-08-17T14:03:39.991Z,1.00
2018-08-17T14:06:08.120Z,1.00
2018-08-17T14:08:36.262Z,1.00
2018-08-17T14:11:04.380Z,1.00
2018-08-17T14:13:32.522Z,1.00
2018-08-17T14:16:00.657Z,1.00
2018-08-17T14:18:28.793Z,1.00
2018-08-17T14:20:56.943Z,1.00
2018-08-17T14:23:25.144Z,1.00
2018-08-17T14:25:56.482Z,1.00
2018-08-17T14:28:24.671Z,1.00
2018-08-17T14:30:53.866Z,1.00
2018-08-17T14:33:25.215Z,1.00
2018-08-17T14:35:53.381Z,1.00
2018-08-17T14:38:29.152Z,1.00
2018-08-17T14:40:57.286Z,1.00
2018-08-17T14:43:26.010Z,1.00
2018-08-17T14:45:56.243Z,1.00
2018-08-17T14:48:24.398Z,1.00
2018-08-17T14:50:52.549Z,1.00
2018-08-17T14:53:21.818Z,1.00
2018-08-17T14:55:49.942Z,1.00
2018-08-17T14:58:18.101Z,1.00
2018-08-17T15:00:46.273Z,1.00
2018-08-17T15:03:14.452Z,1.00
2018-08-17T15:05:42.613Z,1.00
2018-08-17T15:08:10.871Z,1.00
2018-08-17T15:10:38.990Z,1.00
2018-08-17T15:13:07.222Z,1.00
2018-08-17T15:15:35.351Z,1.00
2018-08-17T15:18:04.561Z,1.00
2018-08-17T15:20:32.814Z,1.00
2018-08-17T15:23:03.022Z,1.00
2018-08-17T15:25:31.156Z,1.00
2018-08-17T15:28:00.396Z,1.00
2018-08-17T15:30:28.558Z,1.00
2018-08-17T15:32:56.746Z,1.00
2018-08-17T15:35:25.961Z,1.00
2018-08-17T15:37:59.835Z,1.00
2018-08-17T15:40:28.023Z,1.00
2018-08-17T15:43:15.962Z,1.00
2018-08-17T15:45:44.299Z,1.00
2018-08-17T15:48:12.501Z,1.00
2018-08-17T15:50:44.457Z,1.00
2018-08-17T15:53:12.601Z,1.00
2018-08-17T15:55:41.749Z,1.00
2018-08-17T15:58:10.945Z,1.00
2018-08-17T16:00:41.174Z,1.00
2018-08-17T16:03:09.419Z,1.00
2018-08-17T16:05:37.674Z,1.00
2018-08-17T16:08:07.012Z,1.00
2018-08-17T16:10:36.195Z,1.00
2018-08-17T16:13:05.496Z,1.00
2018-08-17T16:15:33.711Z,1.00
2018-08-17T16:18:03.905Z,1.00
2018-08-17T16:20:32.039Z,1.00
2018-08-17T16:23:00.246Z,1.00
2018-08-17T16:25:32.632Z,1.00
2018-08-17T16:28:01.817Z,1.00
2018-08-17T16:30:30.034Z,1.00
2018-08-17T16:32:58.287Z,1.00
2018-08-17T16:35:26.462Z,1.00
2018-08-17T16:37:55.666Z,1.00
2018-08-17T16:40:23.838Z,1.00
2018-08-17T16:42:53.162Z,1.00
2018-08-17T16:45:21.454Z,1.00
2018-08-17T16:47:49.679Z,1.00
2018-08-17T16:50:17.870Z,1.00
2018-08-17T16:52:46.088Z,1.00
2018-08-17T16:55:14.412Z,1.00
2018-08-17T16:57:42.567Z,1.00
2018-08-17T17:00:11.405Z,1.00
2018-08-17T17:02:40.109Z,1.00
2018-08-17T17:05:11.830Z,1.00
2018-08-17T17:07:39.993Z,1.00
2018-08-17T17:10:09.270Z,1.00
2018-08-17T17:12:37.450Z,1.00
2018-08-17T17:15:13.050Z,1.00
2018-08-17T17:17:42.344Z,1.00
2018-08-17T17:20:10.478Z,1.00
2018-08-17T17:22:38.667Z,1.00
2018-08-17T17:25:12.446Z,1.00
2018-08-17T17:27:46.481Z,1.00
2018-08-17T17:30:14.670Z,1.00
2018-08-17T17:32:42.803Z,1.00
2018-08-17T17:35:10.985Z,1.00
2018-08-17T17:37:40.178Z,1.00
2018-08-17T17:40:08.367Z,1.00
2018-08-17T17:42:36.487Z,1.00
2018-08-17T17:45:05.422Z,1.00
2018-08-17T17:47:33.598Z,1.00
2018-08-17T17:50:01.725Z,1.00
2018-08-17T17:52:29.958Z,1.00
2018-08-17T17:54:58.113Z,1.00
2018-08-17T17:57:27.327Z,1.00
2018-08-17T17:59:57.157Z,1.00
2018-08-17T18:02:25.945Z,1.00
2018-08-17T18:04:54.098Z,1.00
2018-08-17T18:07:23.925Z,1.00
2018-08-17T18:09:52.073Z,1.00
2018-08-17T18:12:20.188Z,1.00
2018-08-17T18:14:48.320Z,1.00
2018-08-17T18:17:16.497Z,1.00
2018-08-17T18:19:44.669Z,1.00
2018-08-17T18:22:18.492Z,1.00
2018-08-17T18:24:46.653Z,1.00
2018-08-17T18:27:14.849Z,1.00
2018-08-17T18:29:42.996Z,1.00
2018-08-17T18:32:11.207Z,1.00
2018-08-17T18:34:39.366Z,1.00
2018-08-17T18:37:07.558Z,1.00
2018-08-17T18:39:35.714Z,1.00
2018-08-17T18:42:03.923Z,1.00
2018-08-17T18:44:33.073Z,1.00
2018-08-17T18:47:01.255Z,1.00
2018-08-17T18:49:29.409Z,1.00
2018-08-17T18:51:57.602Z,1.00
2018-08-17T18:54:25.790Z,1.00
2018-08-17T18:56:53.954Z,1.00
2018-08-17T18:59:22.132Z,1.00
2018-08-17T19:01:50.285Z,1.00
2018-08-17T19:04:18.461Z,1.00
2018-08-17T19:06:46.639Z,1.00
2018-08-17T19:09:14.827Z,1.00
2018-08-17T19:11:43.006Z,1.00
2018-08-17T19:14:11.173Z,1.00
2018-08-17T19:16:39.346Z,1.00
2018-08-17T19:19:07.510Z,1.00
2018-08-17T19:21:35.690Z,1.00
2018-08-17T19:24:08.637Z,1.00
2018-08-17T19:26:36.854Z,1.00
2018-08-17T19:29:05.036Z,1.00
2018-08-17T19:31:33.214Z,1.00
2018-08-17T19:34:01.384Z,1.00
2018-08-17T19:36:29.497Z,1.00
2018-08-17T19:38:57.705Z,1.00
2018-08-17T19:41:25.899Z,1.00
2018-08-17T19:43:54.186Z,1.00
2018-08-17T19:46:22.464Z,1.00
2018-08-17T19:48:50.512Z,1.00
2018-08-17T19:51:19.534Z,1.00
2018-08-17T19:53:48.030Z,1.00
2018-08-17T19:56:16.498Z,1.00
2018-08-17T19:58:44.650Z,1.00
2018-08-17T20:01:12.827Z,1.00
2018-08-17T20:03:41.179Z,1.00
2018-08-17T20:06:09.383Z,1.00
2018-08-17T20:08:38.574Z,1.00
2018-08-17T20:11:06.756Z,1.00
2018-08-17T20:13:34.942Z,1.00
2018-08-17T20:16:08.855Z,1.00
2018-08-17T20:18:37.010Z,1.00
2018-08-17T20:21:05.194Z,1.00
2018-08-17T20:23:33.367Z,1.00
2018-08-17T20:26:01.669Z,1.00
2018-08-17T20:28:30.033Z,1.00
2018-08-17T20:30:58.182Z,1.00
2018-08-17T20:33:29.298Z,1.00
2018-08-17T20:35:57.837Z,1.00
2018-08-17T20:38:26.004Z,1.00
2018-08-17T20:40:58.378Z,1.00
2018-08-17T20:43:27.187Z,1.00
2018-08-17T20:45:55.369Z,1.00
2018-08-17T20:48:23.687Z,1.00
2018-08-17T20:50:52.898Z,1.00
2018-08-17T20:53:21.065Z,1.00
2018-08-17T20:55:49.252Z,1.00
2018-08-17T20:58:17.434Z,1.00
2018-08-17T21:00:45.611Z,1.00
2018-08-17T21:03:13.771Z,1.00
2018-08-17T21:05:41.946Z,1.00
2018-08-17T21:08:10.143Z,1.00
2018-08-17T21:10:38.278Z,1.00
2018-08-17T21:13:06.482Z,1.00
2018-08-17T21:15:34.651Z,1.40
2018-08-17T21:18:02.823Z,1.90
2018-08-17T21:20:30.981Z,1.60
2018-08-17T21:22:59.170Z,2.40
2018-08-17T21:25:27.321Z,3.00
2018-08-17T21:27:55.508Z,3.50
2018-08-17T21:30:23.691Z,3.50
2018-08-17T21:32:51.861Z,4.50
2018-08-17T21:35:20.034Z,4.80
2018-08-17T21:37:48.206Z,4.20
2018-08-17T21:40:24.474Z,4.50
2018-08-17T21:42:52.618Z,4.90
2018-08-17T21:45:20.734Z,5.50
2018-08-17T21:47:48.876Z,5.20
2018-08-17T21:50:17.079Z,4.80
2018-08-17T21:52:45.789Z,4.50
2018-08-17T21:55:14.274Z,5.30
2018-08-17T21:57:42.670Z,4.30
2018-08-17T22:00:22.089Z,3.80
2018-08-17T22:02:50.375Z,4.30
2018-08-17T22:05:24.731Z,4.00
2018-08-17T22:07:52.910Z,3.80
2018-08-17T22:10:21.094Z,4.30
2018-08-17T22:12:49.277Z,3.90
2018-08-17T22:15:17.440Z,4.70
2018-08-17T22:17:45.616Z,4.70
2018-08-17T22:20:13.800Z,5.40
2018-08-17T22:22:41.969Z,4.30
2018-08-17T22:25:11.867Z,4.30
2018-08-17T22:27:40.142Z,5.00
2018-08-17T22:30:15.558Z,4.70
2018-08-17T22:32:43.681Z,5.10
2018-08-17T22:35:12.217Z,5.80
2018-08-17T22:37:40.329Z,6.40
2018-08-17T22:40:08.502Z,6.30
2018-08-17T22:42:36.665Z,6.70
2018-08-17T22:45:04.902Z,7.00
2018-08-17T22:47:33.121Z,6.90
2018-08-17T22:50:01.650Z,7.00
2018-08-17T22:52:34.085Z,7.30
2018-08-17T22:55:03.627Z,7.50
2018-08-17T22:57:32.190Z,6.70
2018-08-17T23:00:17.568Z,7.20
2018-08-17T23:02:46.770Z,7.10
2018-08-17T23:05:19.040Z,6.60
2018-08-17T23:07:47.198Z,6.40
2018-08-17T23:10:17.237Z,7.20
2018-08-17T23:12:46.422Z,6.60
2018-08-17T23:15:14.604Z,6.60
2018-08-17T23:17:45.357Z,6.10
2018-08-17T23:20:13.602Z,6.30
2018-08-17T23:22:45.607Z,5.80
2018-08-17T23:25:13.966Z,6.10
2018-08-17T23:27:42.065Z,6.90
2018-08-17T23:30:10.206Z,6.70
2018-08-17T23:32:38.349Z,5.90
2018-08-17T23:35:06.586Z,6.20
2018-08-17T23:37:34.805Z,6.00
2018-08-17T23:40:03.011Z,5.60
2018-08-17T23:42:31.141Z,5.80
2018-08-17T23:44:59.330Z,5.30
2018-08-17T23:47:27.506Z,6.80
2018-08-17T23:49:55.690Z,6.20
2018-08-17T23:52:23.902Z,5.60
2018-08-17T23:54:52.136Z,5.60
2018-08-17T23:57:20.290Z,5.70
2018-08-17T23:59:48.465Z,5.70
